sensor_id;sensor_type;location;lat;lon;timestamp;pressure;altitude;pressure_sealevel;temperature;humidity
64095;BME280;50353;51.420;5.682;2022-10-16T00:00:42;100768.72;;;13.84;96.55
64095;BME280;50353;51.420;5.682;2022-10-16T00:03:08;100773.94;;;13.61;97.74
64095;BME280;50353;51.420;5.682;2022-10-16T00:05:39;100761.44;;;13.50;98.66
64095;BME280;50353;51.420;5.682;2022-10-16T00:08:05;100769.69;;;13.59;98.26
64095;BME280;50353;51.420;5.682;2022-10-16T00:10:30;100771.28;;;13.37;99.79
64095;BME280;50353;51.420;5.682;2022-10-16T00:12:55;100764.88;;;13.64;98.30
64095;BME280;50353;51.420;5.682;2022-10-16T00:15:20;100766.47;;;13.66;97.41
64095;BME280;50353;51.420;5.682;2022-10-16T00:17:46;100767.59;;;13.75;96.87
64095;BME280;50353;51.420;5.682;2022-10-16T00:20:11;100760.81;;;13.71;97.45
64095;BME280;50353;51.420;5.682;2022-10-16T00:22:36;100767.22;;;13.44;99.07
64095;BME280;50353;51.420;5.682;2022-10-16T00:25:02;100774.56;;;13.65;98.23
64095;BME280;50353;51.420;5.682;2022-10-16T00:27:27;100762.50;;;13.72;97.55
64095;BME280;50353;51.420;5.682;2022-10-16T00:29:53;100763.69;;;13.44;99.03
64095;BME280;50353;51.420;5.682;2022-10-16T00:32:19;100769.75;;;13.46;99.29
64095;BME280;50353;51.420;5.682;2022-10-16T00:34:45;100764.88;;;13.64;98.39
64095;BME280;50353;51.420;5.682;2022-10-16T00:37:10;100769.84;;;13.68;97.81
64095;BME280;50353;51.420;5.682;2022-10-16T00:39:36;100759.59;;;13.64;97.57
64095;BME280;50353;51.420;5.682;2022-10-16T00:42:01;100760.66;;;13.37;99.27
64095;BME280;50353;51.420;5.682;2022-10-16T00:44:56;100760.44;;;13.27;99.81
64095;BME280;50353;51.420;5.682;2022-10-16T00:47:29;100768.28;;;13.42;99.24
64095;BME280;50353;51.420;5.682;2022-10-16T00:50:01;100771.38;;;13.35;98.71
64095;BME280;50353;51.420;5.682;2022-10-16T00:52:28;100783.16;;;13.44;97.87
64095;BME280;50353;51.420;5.682;2022-10-16T00:54:54;100779.28;;;13.11;99.99
64095;BME280;50353;51.420;5.682;2022-10-16T00:57:20;100780.72;;;13.28;99.36
64095;BME280;50353;51.420;5.682;2022-10-16T00:59:45;100781.06;;;13.24;98.98
64095;BME280;50353;51.420;5.682;2022-10-16T01:02:14;100773.09;;;13.24;98.56
64095;BME280;50353;51.420;5.682;2022-10-16T01:04:50;100781.63;;;13.03;99.44
64095;BME280;50353;51.420;5.682;2022-10-16T01:10:30;100782.75;;;12.88;99.70
64095;BME280;50353;51.420;5.682;2022-10-16T01:13:11;100773.00;;;12.75;100.00
64095;BME280;50353;51.420;5.682;2022-10-16T01:15:55;100760.28;;;12.80;100.00
64095;BME280;50353;51.420;5.682;2022-10-16T01:18:34;100752.50;;;12.77;100.00
64095;BME280;50353;51.420;5.682;2022-10-16T01:21:05;100762.81;;;13.19;99.46
64095;BME280;50353;51.420;5.682;2022-10-16T01:23:51;100756.56;;;13.20;98.48
64095;BME280;50353;51.420;5.682;2022-10-16T01:27:04;100752.03;;;13.09;98.51
64095;BME280;50353;51.420;5.682;2022-10-16T01:34:51;100757.97;;;13.00;99.12
64095;BME280;50353;51.420;5.682;2022-10-16T01:37:39;100769.13;;;13.05;98.38
64095;BME280;50353;51.420;5.682;2022-10-16T01:40:09;100776.44;;;13.14;97.59
64095;BME280;50353;51.420;5.682;2022-10-16T01:42:40;100769.94;;;13.18;97.66
64095;BME280;50353;51.420;5.682;2022-10-16T01:45:08;100761.22;;;12.79;99.43
64095;BME280;50353;51.420;5.682;2022-10-16T01:47:37;100779.44;;;12.84;99.55
64095;BME280;50353;51.420;5.682;2022-10-16T01:50:04;100784.06;;;13.19;97.84
64095;BME280;50353;51.420;5.682;2022-10-16T01:52:32;100773.03;;;13.12;97.41
64095;BME280;50353;51.420;5.682;2022-10-16T01:55:00;100776.19;;;13.17;97.12
64095;BME280;50353;51.420;5.682;2022-10-16T01:57:28;100774.78;;;12.88;98.25
64095;BME280;50353;51.420;5.682;2022-10-16T01:59:58;100767.28;;;12.68;100.00
64095;BME280;50353;51.420;5.682;2022-10-16T02:02:26;100773.31;;;12.71;99.59
64095;BME280;50353;51.420;5.682;2022-10-16T02:04:58;100791.66;;;12.61;99.55
64095;BME280;50353;51.420;5.682;2022-10-16T02:07:26;100796.25;;;12.59;99.51
64095;BME280;50353;51.420;5.682;2022-10-16T02:09:52;100790.72;;;12.62;100.00
64095;BME280;50353;51.420;5.682;2022-10-16T02:12:28;100785.00;;;12.55;100.00
64095;BME280;50353;51.420;5.682;2022-10-16T02:14:55;100787.63;;;12.81;99.76
64095;BME280;50353;51.420;5.682;2022-10-16T02:17:21;100785.59;;;12.97;98.05
64095;BME280;50353;51.420;5.682;2022-10-16T02:19:48;100781.50;;;12.80;98.22
64095;BME280;50353;51.420;5.682;2022-10-16T02:22:19;100772.91;;;12.64;99.60
64095;BME280;50353;51.420;5.682;2022-10-16T02:24:54;100770.84;;;12.93;97.83
64095;BME280;50353;51.420;5.682;2022-10-16T02:27:40;100772.78;;;12.91;97.89
64095;BME280;50353;51.420;5.682;2022-10-16T02:32:49;100776.03;;;12.95;98.27
64095;BME280;50353;51.420;5.682;2022-10-16T02:35:17;100771.59;;;12.82;98.96
64095;BME280;50353;51.420;5.682;2022-10-16T02:37:44;100785.81;;;12.94;98.24
64095;BME280;50353;51.420;5.682;2022-10-16T02:40:11;100790.16;;;12.82;97.38
64095;BME280;50353;51.420;5.682;2022-10-16T02:42:38;100779.75;;;12.92;97.44
64095;BME280;50353;51.420;5.682;2022-10-16T02:45:06;100790.31;;;12.68;98.66
64095;BME280;50353;51.420;5.682;2022-10-16T02:47:31;100789.97;;;12.73;98.72
64095;BME280;50353;51.420;5.682;2022-10-16T02:49:57;100785.72;;;12.83;97.89
64095;BME280;50353;51.420;5.682;2022-10-16T02:52:22;100780.69;;;13.04;97.12
64095;BME280;50353;51.420;5.682;2022-10-16T02:54:47;100783.22;;;13.06;96.90
64095;BME280;50353;51.420;5.682;2022-10-16T02:57:13;100776.91;;;12.82;98.24
64095;BME280;50353;51.420;5.682;2022-10-16T02:59:38;100771.13;;;13.14;96.39
64095;BME280;50353;51.420;5.682;2022-10-16T03:02:03;100772.47;;;12.83;98.57
64095;BME280;50353;51.420;5.682;2022-10-16T03:04:29;100763.97;;;12.78;98.79
64095;BME280;50353;51.420;5.682;2022-10-16T03:06:54;100775.19;;;12.81;98.93
64095;BME280;50353;51.420;5.682;2022-10-16T03:09:19;100766.59;;;12.91;98.47
64095;BME280;50353;51.420;5.682;2022-10-16T03:11:45;100779.41;;;13.10;97.18
64095;BME280;50353;51.420;5.682;2022-10-16T03:14:10;100782.28;;;12.94;97.68
64095;BME280;50353;51.420;5.682;2022-10-16T03:16:35;100791.13;;;12.81;98.58
64095;BME280;50353;51.420;5.682;2022-10-16T03:19:01;100796.84;;;13.01;97.26
64095;BME280;50353;51.420;5.682;2022-10-16T03:21:26;100806.16;;;12.94;97.68
64095;BME280;50353;51.420;5.682;2022-10-16T03:23:51;100808.69;;;13.08;95.82
64095;BME280;50353;51.420;5.682;2022-10-16T03:26:17;100812.00;;;12.99;96.95
64095;BME280;50353;51.420;5.682;2022-10-16T03:28:42;100808.22;;;12.77;98.90
64095;BME280;50353;51.420;5.682;2022-10-16T03:31:07;100810.44;;;12.83;98.70
64095;BME280;50353;51.420;5.682;2022-10-16T03:33:33;100811.94;;;12.62;99.82
64095;BME280;50353;51.420;5.682;2022-10-16T03:35:58;100813.63;;;12.89;98.61
64095;BME280;50353;51.420;5.682;2022-10-16T03:38:24;100816.69;;;12.95;98.30
64095;BME280;50353;51.420;5.682;2022-10-16T03:40:49;100807.03;;;12.94;98.17
64095;BME280;50353;51.420;5.682;2022-10-16T03:43:14;100813.00;;;12.72;99.94
64095;BME280;50353;51.420;5.682;2022-10-16T03:45:40;100806.31;;;12.66;100.00
64095;BME280;50353;51.420;5.682;2022-10-16T03:48:05;100815.53;;;12.99;98.54
64095;BME280;50353;51.420;5.682;2022-10-16T03:50:31;100821.75;;;13.11;97.89
64095;BME280;50353;51.420;5.682;2022-10-16T03:52:56;100811.34;;;13.08;97.72
64095;BME280;50353;51.420;5.682;2022-10-16T03:55:21;100820.72;;;13.01;99.05
64095;BME280;50353;51.420;5.682;2022-10-16T03:57:47;100831.41;;;13.12;97.11
64095;BME280;50353;51.420;5.682;2022-10-16T04:00:12;100830.59;;;12.86;99.32
64095;BME280;50353;51.420;5.682;2022-10-16T04:02:38;100828.47;;;13.04;98.79
64095;BME280;50353;51.420;5.682;2022-10-16T04:05:03;100841.69;;;13.17;97.61
64095;BME280;50353;51.420;5.682;2022-10-16T04:07:29;100829.00;;;12.83;100.00
64095;BME280;50353;51.420;5.682;2022-10-16T04:09:54;100836.44;;;12.78;100.00
64095;BME280;50353;51.420;5.682;2022-10-16T04:12:19;100831.88;;;13.06;98.34
64095;BME280;50353;51.420;5.682;2022-10-16T04:14:45;100838.38;;;13.26;96.79
64095;BME280;50353;51.420;5.682;2022-10-16T04:17:10;100843.16;;;13.34;97.38
64095;BME280;50353;51.420;5.682;2022-10-16T04:19:35;100836.69;;;13.38;95.88
64095;BME280;50353;51.420;5.682;2022-10-16T04:22:00;100840.00;;;13.42;94.81
64095;BME280;50353;51.420;5.682;2022-10-16T04:24:26;100845.31;;;13.03;98.77
64095;BME280;50353;51.420;5.682;2022-10-16T04:26:51;100838.22;;;12.91;100.00
64095;BME280;50353;51.420;5.682;2022-10-16T04:29:16;100843.66;;;12.89;100.00
64095;BME280;50353;51.420;5.682;2022-10-16T04:31:42;100848.22;;;12.87;100.00
64095;BME280;50353;51.420;5.682;2022-10-16T04:34:07;100841.19;;;12.99;99.91
64095;BME280;50353;51.420;5.682;2022-10-16T04:36:32;100847.16;;;13.02;99.53
64095;BME280;50353;51.420;5.682;2022-10-16T04:38:57;100852.44;;;13.02;99.87
64095;BME280;50353;51.420;5.682;2022-10-16T04:41:23;100840.88;;;12.91;100.00
64095;BME280;50353;51.420;5.682;2022-10-16T04:43:48;100845.25;;;12.92;99.86
64095;BME280;50353;51.420;5.682;2022-10-16T04:46:13;100850.00;;;13.12;99.09
64095;BME280;50353;51.420;5.682;2022-10-16T04:48:39;100851.34;;;13.18;99.45
64095;BME280;50353;51.420;5.682;2022-10-16T04:51:04;100856.69;;;13.05;99.95
64095;BME280;50353;51.420;5.682;2022-10-16T04:53:29;100863.03;;;13.15;98.72
64095;BME280;50353;51.420;5.682;2022-10-16T04:55:55;100861.56;;;13.11;100.00
64095;BME280;50353;51.420;5.682;2022-10-16T04:58:21;100868.19;;;12.93;100.00
64095;BME280;50353;51.420;5.682;2022-10-16T05:00:46;100872.41;;;13.08;99.75
64095;BME280;50353;51.420;5.682;2022-10-16T05:03:12;100871.66;;;12.93;100.00
64095;BME280;50353;51.420;5.682;2022-10-16T05:05:42;100864.34;;;12.97;100.00
64095;BME280;50353;51.420;5.682;2022-10-16T05:08:09;100866.03;;;13.11;99.38
64095;BME280;50353;51.420;5.682;2022-10-16T05:10:34;100869.00;;;12.93;100.00
64095;BME280;50353;51.420;5.682;2022-10-16T05:12:59;100870.38;;;12.99;99.83
64095;BME280;50353;51.420;5.682;2022-10-16T05:15:24;100874.31;;;13.06;100.00
64095;BME280;50353;51.420;5.682;2022-10-16T05:17:52;100874.22;;;13.08;100.00
64095;BME280;50353;51.420;5.682;2022-10-16T05:20:18;100873.00;;;13.25;98.82
64095;BME280;50353;51.420;5.682;2022-10-16T05:22:43;100880.03;;;13.13;99.84
64095;BME280;50353;51.420;5.682;2022-10-16T05:25:08;100879.84;;;13.16;99.31
64095;BME280;50353;51.420;5.682;2022-10-16T05:27:33;100895.56;;;13.06;100.00
64095;BME280;50353;51.420;5.682;2022-10-16T05:29:59;100893.75;;;13.07;99.73
64095;BME280;50353;51.420;5.682;2022-10-16T05:32:24;100904.03;;;13.11;99.51
64095;BME280;50353;51.420;5.682;2022-10-16T05:34:50;100907.63;;;12.97;100.00
64095;BME280;50353;51.420;5.682;2022-10-16T05:37:15;100917.59;;;12.94;100.00
64095;BME280;50353;51.420;5.682;2022-10-16T05:39:40;100912.09;;;13.10;99.60
64095;BME280;50353;51.420;5.682;2022-10-16T05:42:06;100921.34;;;12.91;100.00
64095;BME280;50353;51.420;5.682;2022-10-16T05:44:32;100926.94;;;12.87;100.00
64095;BME280;50353;51.420;5.682;2022-10-16T05:46:58;100930.56;;;12.85;100.00
64095;BME280;50353;51.420;5.682;2022-10-16T05:49:23;100928.03;;;12.97;100.00
64095;BME280;50353;51.420;5.682;2022-10-16T05:51:48;100935.03;;;12.98;100.00
64095;BME280;50353;51.420;5.682;2022-10-16T05:54:13;100945.09;;;13.06;99.55
64095;BME280;50353;51.420;5.682;2022-10-16T05:56:39;100945.66;;;12.98;100.00
64095;BME280;50353;51.420;5.682;2022-10-16T05:59:05;100959.72;;;12.85;100.00
64095;BME280;50353;51.420;5.682;2022-10-16T06:01:30;100947.63;;;12.81;100.00
64095;BME280;50353;51.420;5.682;2022-10-16T06:03:56;100957.00;;;13.00;100.00
64095;BME280;50353;51.420;5.682;2022-10-16T06:06:23;100955.91;;;12.77;100.00
64095;BME280;50353;51.420;5.682;2022-10-16T06:08:51;100964.09;;;12.87;100.00
64095;BME280;50353;51.420;5.682;2022-10-16T06:11:19;100973.53;;;12.91;100.00
64095;BME280;50353;51.420;5.682;2022-10-16T06:13:52;100979.38;;;12.83;100.00
64095;BME280;50353;51.420;5.682;2022-10-16T06:16:18;100979.91;;;12.75;100.00
64095;BME280;50353;51.420;5.682;2022-10-16T06:18:45;100972.91;;;12.87;100.00
64095;BME280;50353;51.420;5.682;2022-10-16T06:21:14;100982.44;;;12.77;100.00
64095;BME280;50353;51.420;5.682;2022-10-16T06:23:41;100986.25;;;12.85;100.00
64095;BME280;50353;51.420;5.682;2022-10-16T06:26:12;100993.38;;;12.85;100.00
64095;BME280;50353;51.420;5.682;2022-10-16T06:28:38;100995.53;;;12.93;100.00
64095;BME280;50353;51.420;5.682;2022-10-16T06:31:05;100995.53;;;12.93;100.00
64095;BME280;50353;51.420;5.682;2022-10-16T06:33:30;100997.53;;;12.89;100.00
64095;BME280;50353;51.420;5.682;2022-10-16T06:36:04;100993.81;;;12.92;99.96
64095;BME280;50353;51.420;5.682;2022-10-16T06:38:30;101004.88;;;12.98;99.46
64095;BME280;50353;51.420;5.682;2022-10-16T06:40:56;101010.78;;;12.89;100.00
64095;BME280;50353;51.420;5.682;2022-10-16T06:43:21;101013.56;;;13.00;99.99
64095;BME280;50353;51.420;5.682;2022-10-16T06:45:53;101014.94;;;12.80;100.00
64095;BME280;50353;51.420;5.682;2022-10-16T06:48:19;101019.28;;;12.54;100.00
64095;BME280;50353;51.420;5.682;2022-10-16T06:50:44;101017.31;;;12.71;100.00
64095;BME280;50353;51.420;5.682;2022-10-16T06:53:19;101017.81;;;12.90;100.00
64095;BME280;50353;51.420;5.682;2022-10-16T06:55:44;101027.03;;;12.84;100.00
64095;BME280;50353;51.420;5.682;2022-10-16T06:58:09;101033.06;;;12.87;100.00
64095;BME280;50353;51.420;5.682;2022-10-16T07:00:35;101038.16;;;12.90;100.00
64095;BME280;50353;51.420;5.682;2022-10-16T07:03:00;101037.25;;;13.04;100.00
64095;BME280;50353;51.420;5.682;2022-10-16T07:05:25;101042.13;;;13.10;100.00
64095;BME280;50353;51.420;5.682;2022-10-16T07:07:50;101044.50;;;13.14;100.00
64095;BME280;50353;51.420;5.682;2022-10-16T07:10:16;101043.97;;;13.22;99.24
64095;BME280;50353;51.420;5.682;2022-10-16T07:12:41;101057.78;;;13.27;99.72
64095;BME280;50353;51.420;5.682;2022-10-16T07:15:07;101065.53;;;13.30;99.84
64095;BME280;50353;51.420;5.682;2022-10-16T07:17:32;101067.34;;;13.30;99.34
64095;BME280;50353;51.420;5.682;2022-10-16T07:19:57;101076.78;;;13.34;99.37
64095;BME280;50353;51.420;5.682;2022-10-16T07:22:23;101078.97;;;13.42;99.37
64095;BME280;50353;51.420;5.682;2022-10-16T07:24:48;101075.59;;;13.52;98.87
64095;BME280;50353;51.420;5.682;2022-10-16T07:27:13;101086.06;;;13.41;99.80
64095;BME280;50353;51.420;5.682;2022-10-16T07:29:40;101088.84;;;13.40;100.00
64095;BME280;50353;51.420;5.682;2022-10-16T07:32:05;101093.00;;;13.57;99.29
64095;BME280;50353;51.420;5.682;2022-10-16T07:34:31;101093.72;;;13.59;100.00
64095;BME280;50353;51.420;5.682;2022-10-16T07:36:56;101106.16;;;13.71;99.13
64095;BME280;50353;51.420;5.682;2022-10-16T07:39:21;101108.28;;;13.66;99.71
64095;BME280;50353;51.420;5.682;2022-10-16T07:41:47;101111.59;;;13.57;99.85
64095;BME280;50353;51.420;5.682;2022-10-16T07:44:12;101115.41;;;13.78;99.21
64095;BME280;50353;51.420;5.682;2022-10-16T07:46:37;101114.34;;;13.94;96.80
64095;BME280;50353;51.420;5.682;2022-10-16T07:49:03;101118.88;;;14.17;95.47
64095;BME280;50353;51.420;5.682;2022-10-16T07:51:28;101114.97;;;14.10;96.22
64095;BME280;50353;51.420;5.682;2022-10-16T07:53:54;101123.28;;;13.93;96.80
64095;BME280;50353;51.420;5.682;2022-10-16T07:56:20;101131.53;;;14.27;95.38
64095;BME280;50353;51.420;5.682;2022-10-16T07:58:46;101136.00;;;14.13;96.17
64095;BME280;50353;51.420;5.682;2022-10-16T08:01:15;101135.31;;;14.48;95.78
64095;BME280;50353;51.420;5.682;2022-10-16T08:03:42;101148.50;;;14.50;94.32
64095;BME280;50353;51.420;5.682;2022-10-16T08:06:07;101152.88;;;14.38;95.24
64095;BME280;50353;51.420;5.682;2022-10-16T08:08:33;101160.56;;;14.30;97.15
64095;BME280;50353;51.420;5.682;2022-10-16T08:10:58;101166.25;;;14.75;93.75
64095;BME280;50353;51.420;5.682;2022-10-16T08:13:23;101166.28;;;14.49;95.65
64095;BME280;50353;51.420;5.682;2022-10-16T08:15:49;101175.28;;;14.60;94.41
64095;BME280;50353;51.420;5.682;2022-10-16T08:18:15;101168.06;;;14.62;94.10
64095;BME280;50353;51.420;5.682;2022-10-16T08:20:42;101164.34;;;14.51;94.80
64095;BME280;50353;51.420;5.682;2022-10-16T08:23:09;101175.00;;;14.64;94.46
64095;BME280;50353;51.420;5.682;2022-10-16T08:25:36;101170.75;;;14.86;92.99
64095;BME280;50353;51.420;5.682;2022-10-16T08:28:06;101180.81;;;15.07;90.87
64095;BME280;50353;51.420;5.682;2022-10-16T08:30:32;101177.44;;;14.67;93.56
64095;BME280;50353;51.420;5.682;2022-10-16T08:32:58;101186.81;;;15.21;90.75
64095;BME280;50353;51.420;5.682;2022-10-16T08:35:23;101190.09;;;15.01;90.36
64095;BME280;50353;51.420;5.682;2022-10-16T08:37:49;101184.28;;;14.96;92.80
64095;BME280;50353;51.420;5.682;2022-10-16T08:40:24;101185.66;;;15.13;89.20
64095;BME280;50353;51.420;5.682;2022-10-16T08:48:18;101207.94;;;15.12;92.37
64095;BME280;50353;51.420;5.682;2022-10-16T08:50:45;101207.13;;;15.23;90.64
64095;BME280;50353;51.420;5.682;2022-10-16T08:53:38;101207.53;;;15.53;87.05
64095;BME280;50353;51.420;5.682;2022-10-16T08:56:07;101208.97;;;15.46;88.53
64095;BME280;50353;51.420;5.682;2022-10-16T08:58:32;101216.63;;;15.62;87.03
64095;BME280;50353;51.420;5.682;2022-10-16T09:01:03;101216.88;;;15.70;85.86
64095;BME280;50353;51.420;5.682;2022-10-16T09:03:54;101225.16;;;15.79;86.37
64095;BME280;50353;51.420;5.682;2022-10-16T09:06:49;101220.84;;;15.89;86.44
64095;BME280;50353;51.420;5.682;2022-10-16T09:12:21;101223.81;;;15.73;87.30
64095;BME280;50353;51.420;5.682;2022-10-16T09:15:02;101225.63;;;15.97;86.68
64095;BME280;50353;51.420;5.682;2022-10-16T09:20:20;101233.75;;;16.18;85.24
64095;BME280;50353;51.420;5.682;2022-10-16T09:22:53;101238.00;;;16.20;83.49
64095;BME280;50353;51.420;5.682;2022-10-16T09:25:21;101241.28;;;16.35;82.88
64095;BME280;50353;51.420;5.682;2022-10-16T09:27:48;101238.75;;;16.68;80.50
64095;BME280;50353;51.420;5.682;2022-10-16T09:30:18;101255.03;;;16.65;80.85
64095;BME280;50353;51.420;5.682;2022-10-16T09:32:45;101245.03;;;16.78;79.65
64095;BME280;50353;51.420;5.682;2022-10-16T09:35:18;101246.25;;;16.85;80.07
64095;BME280;50353;51.420;5.682;2022-10-16T09:37:47;101248.31;;;16.82;79.27
64095;BME280;50353;51.420;5.682;2022-10-16T09:40:24;101258.38;;;17.23;78.86
64095;BME280;50353;51.420;5.682;2022-10-16T09:42:57;101250.88;;;16.83;79.14
64095;BME280;50353;51.420;5.682;2022-10-16T09:45:23;101249.19;;;16.94;79.51
64095;BME280;50353;51.420;5.682;2022-10-16T09:47:49;101247.94;;;17.09;79.11
64095;BME280;50353;51.420;5.682;2022-10-16T09:50:27;101248.16;;;17.17;79.34
64095;BME280;50353;51.420;5.682;2022-10-16T09:55:30;101245.97;;;17.55;78.33
64095;BME280;50353;51.420;5.682;2022-10-16T09:57:55;101256.75;;;17.65;78.04
64095;BME280;50353;51.420;5.682;2022-10-16T10:00:22;101264.50;;;17.35;75.23
64095;BME280;50353;51.420;5.682;2022-10-16T10:02:48;101265.06;;;17.50;75.83
64095;BME280;50353;51.420;5.682;2022-10-16T10:05:29;101256.75;;;17.65;75.96
64095;BME280;50353;51.420;5.682;2022-10-16T10:07:57;101260.00;;;18.01;73.11
64095;BME280;50353;51.420;5.682;2022-10-16T10:10:28;101261.50;;;17.61;72.39
64095;BME280;50353;51.420;5.682;2022-10-16T10:12:55;101254.97;;;17.54;74.46
64095;BME280;50353;51.420;5.682;2022-10-16T10:15:20;101257.38;;;17.57;73.94
64095;BME280;50353;51.420;5.682;2022-10-16T10:17:51;101253.94;;;17.66;73.38
64095;BME280;50353;51.420;5.682;2022-10-16T10:20:26;101264.03;;;17.63;73.41
64095;BME280;50353;51.420;5.682;2022-10-16T10:22:53;101267.38;;;17.11;76.83
64095;BME280;50353;51.420;5.682;2022-10-16T10:25:41;101274.03;;;17.05;77.50
64095;BME280;50353;51.420;5.682;2022-10-16T10:28:24;101274.28;;;17.14;77.51
64095;BME280;50353;51.420;5.682;2022-10-16T10:31:10;101278.06;;;17.11;78.43
64095;BME280;50353;51.420;5.682;2022-10-16T10:33:55;101282.66;;;16.86;77.76
64095;BME280;50353;51.420;5.682;2022-10-16T10:36:34;101276.38;;;16.76;77.81
64095;BME280;50353;51.420;5.682;2022-10-16T10:39:15;101289.22;;;16.60;78.75
64095;BME280;50353;51.420;5.682;2022-10-16T10:47:18;101285.34;;;16.52;79.83
64095;BME280;50353;51.420;5.682;2022-10-16T10:50:19;101291.75;;;17.29;76.57
64095;BME280;50353;51.420;5.682;2022-10-16T10:52:59;101300.41;;;17.10;76.16
64095;BME280;50353;51.420;5.682;2022-10-16T10:55:42;101291.31;;;17.56;73.42
64095;BME280;50353;51.420;5.682;2022-10-16T11:01:40;101300.19;;;18.32;71.57
64095;BME280;50353;51.420;5.682;2022-10-16T11:04:39;101299.25;;;18.21;69.42
64095;BME280;50353;51.420;5.682;2022-10-16T11:07:13;101306.41;;;17.79;70.89
64095;BME280;50353;51.420;5.682;2022-10-16T11:09:44;101303.00;;;17.44;72.38
64095;BME280;50353;51.420;5.682;2022-10-16T11:12:32;101296.31;;;17.71;72.36
64095;BME280;50353;51.420;5.682;2022-10-16T11:15:19;101297.00;;;17.84;70.94
64095;BME280;50353;51.420;5.682;2022-10-16T11:17:52;101293.66;;;17.71;69.31
64095;BME280;50353;51.420;5.682;2022-10-16T11:20:23;101290.22;;;17.80;70.67
64095;BME280;50353;51.420;5.682;2022-10-16T11:25:51;101298.25;;;17.92;71.14
64095;BME280;50353;51.420;5.682;2022-10-16T11:28:30;101295.88;;;18.19;70.47
64095;BME280;50353;51.420;5.682;2022-10-16T11:31:08;101303.22;;;18.48;71.01
64095;BME280;50353;51.420;5.682;2022-10-16T11:36:11;101307.25;;;18.33;67.41
64095;BME280;50353;51.420;5.682;2022-10-16T11:39:12;101304.78;;;18.72;67.66
64095;BME280;50353;51.420;5.682;2022-10-16T11:47:00;101306.41;;;19.35;64.74
64095;BME280;50353;51.420;5.682;2022-10-16T11:49:30;101300.44;;;19.12;65.78
64095;BME280;50353;51.420;5.682;2022-10-16T11:54:52;101317.22;;;19.23;64.09
64095;BME280;50353;51.420;5.682;2022-10-16T11:57:35;101314.22;;;19.07;64.76
64095;BME280;50353;51.420;5.682;2022-10-16T12:00:09;101303.22;;;19.10;66.23
64095;BME280;50353;51.420;5.682;2022-10-16T12:05:49;101303.28;;;19.20;65.80
64095;BME280;50353;51.420;5.682;2022-10-16T12:08:17;101308.88;;;19.17;65.31
64095;BME280;50353;51.420;5.682;2022-10-16T12:10:45;101311.06;;;19.42;67.65
64095;BME280;50353;51.420;5.682;2022-10-16T12:18:38;101313.78;;;19.72;63.52
64095;BME280;50353;51.420;5.682;2022-10-16T12:21:04;101317.03;;;19.05;65.11
64095;BME280;50353;51.420;5.682;2022-10-16T12:23:33;101318.00;;;19.04;64.02
64095;BME280;50353;51.420;5.682;2022-10-16T12:26:02;101318.56;;;18.67;65.23
64095;BME280;50353;51.420;5.682;2022-10-16T12:28:29;101325.66;;;19.09;65.09
64095;BME280;50353;51.420;5.682;2022-10-16T12:31:06;101324.47;;;18.61;66.36
64095;BME280;50353;51.420;5.682;2022-10-16T12:33:33;101306.34;;;19.15;65.29
64095;BME280;50353;51.420;5.682;2022-10-16T12:36:03;101307.09;;;19.27;64.40
64095;BME280;50353;51.420;5.682;2022-10-16T12:38:48;101312.97;;;19.21;65.43
64095;BME280;50353;51.420;5.682;2022-10-16T12:41:42;101310.66;;;19.37;64.54
64095;BME280;50353;51.420;5.682;2022-10-16T12:44:25;101313.88;;;19.51;63.68
64095;BME280;50353;51.420;5.682;2022-10-16T12:46:53;101308.97;;;19.75;63.35
64095;BME280;50353;51.420;5.682;2022-10-16T12:51:50;101304.34;;;19.87;61.41
64095;BME280;50353;51.420;5.682;2022-10-16T12:54:23;101294.19;;;19.81;61.91
64095;BME280;50353;51.420;5.682;2022-10-16T12:57:10;101307.97;;;19.67;63.33
64095;BME280;50353;51.420;5.682;2022-10-16T13:05:30;101313.59;;;19.34;65.56
64095;BME280;50353;51.420;5.682;2022-10-16T13:11:02;101301.84;;;19.16;64.86
64095;BME280;50353;51.420;5.682;2022-10-16T13:13:43;101292.56;;;19.20;64.19
64095;BME280;50353;51.420;5.682;2022-10-16T13:21:52;101306.09;;;19.18;66.36
64095;BME280;50353;51.420;5.682;2022-10-16T13:24:55;101308.41;;;19.02;65.93
64095;BME280;50353;51.420;5.682;2022-10-16T13:30:28;101316.38;;;18.82;65.34
64095;BME280;50353;51.420;5.682;2022-10-16T13:33:01;101319.03;;;18.82;66.25
64095;BME280;50353;51.420;5.682;2022-10-16T13:35:29;101320.84;;;18.72;65.35
64095;BME280;50353;51.420;5.682;2022-10-16T13:40:36;101336.00;;;18.62;68.02
64095;BME280;50353;51.420;5.682;2022-10-16T13:43:01;101331.25;;;18.65;66.92
64095;BME280;50353;51.420;5.682;2022-10-16T13:45:27;101335.41;;;18.58;67.45
64095;BME280;50353;51.420;5.682;2022-10-16T13:48:06;101338.81;;;18.60;68.67
64095;BME280;50353;51.420;5.682;2022-10-16T13:50:31;101342.34;;;18.61;69.80
64095;BME280;50353;51.420;5.682;2022-10-16T13:53:05;101336.09;;;18.50;71.71
64095;BME280;50353;51.420;5.682;2022-10-16T13:55:31;101347.00;;;18.37;72.00
64095;BME280;50353;51.420;5.682;2022-10-16T13:58:08;101350.78;;;18.35;71.36
64095;BME280;50353;51.420;5.682;2022-10-16T14:00:37;101345.28;;;18.36;71.76
64095;BME280;50353;51.420;5.682;2022-10-16T14:03:12;101343.06;;;18.41;70.78
64095;BME280;50353;51.420;5.682;2022-10-16T14:05:58;101337.38;;;18.35;71.22
64095;BME280;50353;51.420;5.682;2022-10-16T14:08:25;101340.47;;;18.30;72.01
64095;BME280;50353;51.420;5.682;2022-10-16T14:10:54;101337.06;;;18.28;71.96
64095;BME280;50353;51.420;5.682;2022-10-16T14:13:27;101341.66;;;18.16;73.04
64095;BME280;50353;51.420;5.682;2022-10-16T14:15:53;101346.28;;;18.35;72.79
64095;BME280;50353;51.420;5.682;2022-10-16T14:18:24;101345.28;;;18.36;71.05